Terminal Aerodrome Forecast
Issued by NWS Milwaukee/Sullivan, WI

Home | Current Version | Previous Version | Text Only | Print | Product List | Glossary On
Versions: 1 2 3 4 5 6 7 8 9 10 11 12 13 14 15 16 17 18 19 20 21 22 23 24 25 26 27 28 29 30 31 32 33 34 35 36 37 38 39 40 41 42 43 44 45 46 47 48 49 50
000
FTUS43 KMKX 171136
TAFMSN
TAF
KMSN 171136Z 1712/1812 36004KT 1SM BR VCSH OVC003
     FM171300 35004KT 1/2SM FG VCSH OVC003
     FM171800 33004KT 1SM BR OVC003
     FM172100 32004KT 3SM BR VCSH OVC003
     FM172300 31004KT 4SM BR OVC003
     FM180100 31004KT P6SM OVC003=

USA.gov is the U.S. government's official web portal to all federal, state and local government web resources and services.